createdAt,value
2019-05-02T00:04:21.040Z,9.70
2019-05-02T00:09:26.592Z,9.80
2019-05-02T00:14:31.759Z,9.70
2019-05-02T00:19:36.603Z,9.70
2019-05-02T00:24:42.006Z,9.70
2019-05-02T00:29:46.867Z,9.70
2019-05-02T00:34:51.618Z,9.70
2019-05-02T00:39:57.115Z,9.70
2019-05-02T00:45:02.010Z,9.60
2019-05-02T00:50:11.166Z,9.70
2019-05-02T00:55:14.298Z,9.60
2019-05-02T01:00:21.012Z,9.70
2019-05-02T01:05:26.009Z,9.70
2019-05-02T01:10:30.947Z,9.70
2019-05-02T01:15:39.064Z,9.70
2019-05-02T01:20:42.406Z,9.60
2019-05-02T01:25:52.732Z,9.70
2019-05-02T01:31:20.384Z,9.60
2019-05-02T01:36:36.775Z,9.60
2019-05-02T01:41:41.689Z,9.60
2019-05-02T01:46:46.614Z,9.60
2019-05-02T01:51:51.723Z,9.60
2019-05-02T01:56:56.767Z,9.60
2019-05-02T02:02:01.702Z,9.50
2019-05-02T02:07:06.806Z,9.50
2019-05-02T02:12:11.712Z,9.50
2019-05-02T02:17:17.324Z,9.50
2019-05-02T02:22:41.618Z,9.50
2019-05-02T02:27:46.989Z,9.60
2019-05-02T02:32:51.877Z,9.60
2019-05-02T02:37:57.141Z,9.60
2019-05-02T02:43:12.682Z,9.60
2019-05-02T02:48:11.031Z,9.50
2019-05-02T02:53:24.273Z,9.50
2019-05-02T02:58:25.563Z,9.50
2019-05-02T03:03:34.954Z,9.60
2019-05-02T03:08:46.086Z,9.70
2019-05-02T03:13:59.690Z,9.70
2019-05-02T03:19:00.066Z,9.70
2019-05-02T03:24:05.848Z,9.80
2019-05-02T03:29:11.120Z,9.70
2019-05-02T03:34:16.701Z,9.60
2019-05-02T03:39:22.645Z,9.70
2019-05-02T03:44:28.299Z,9.70
2019-05-02T03:49:33.594Z,9.60
2019-05-02T03:54:49.067Z,9.70
2019-05-02T03:59:45.372Z,9.70
2019-05-02T04:04:54.111Z,9.70
2019-05-02T04:09:59.925Z,9.70
2019-05-02T04:15:09.595Z,9.70
2019-05-02T04:20:13.103Z,9.70
2019-05-02T04:25:18.728Z,9.80
2019-05-02T04:30:24.163Z,9.90
2019-05-02T04:35:34.933Z,9.90
2019-05-02T04:40:44.256Z,10.00
2019-05-02T04:45:56.248Z,10.00
2019-05-02T04:50:59.680Z,10.10
2019-05-02T04:56:07.162Z,10.20
2019-05-02T05:01:10.104Z,10.20
2019-05-02T05:06:15.765Z,10.30
2019-05-02T05:11:24.677Z,10.30
2019-05-02T05:16:28.613Z,10.40
2019-05-02T05:21:37.298Z,10.40
2019-05-02T05:26:44.167Z,10.60
2019-05-02T05:31:49.344Z,10.60
2019-05-02T05:36:54.577Z,10.60
2019-05-02T05:41:59.394Z,10.70
2019-05-02T05:47:04.619Z,10.80
2019-05-02T05:52:09.488Z,10.80
2019-05-02T05:57:19.169Z,10.90
2019-05-02T06:02:21.347Z,11.00
2019-05-02T06:07:27.781Z,11.30
2019-05-02T06:12:35.480Z,11.40
2019-05-02T06:17:39.497Z,11.60
2019-05-02T06:22:44.614Z,12.00
2019-05-02T06:27:50.660Z,12.30
2019-05-02T06:32:56.782Z,12.50
2019-05-02T06:38:02.181Z,12.90
2019-05-02T06:43:09.795Z,13.10
2019-05-02T06:48:17.927Z,13.10
2019-05-02T06:53:22.316Z,13.40
2019-05-02T06:58:27.468Z,13.40
2019-05-02T07:03:32.465Z,13.30
2019-05-02T07:08:38.346Z,13.50
2019-05-02T07:13:43.842Z,13.60
2019-05-02T07:18:52.727Z,14.00
2019-05-02T07:23:57.539Z,14.30
2019-05-02T07:29:02.463Z,14.10
2019-05-02T07:34:08.023Z,13.80
2019-05-02T07:39:14.498Z,13.70
2019-05-02T07:44:19.462Z,13.50
2019-05-02T07:49:26.606Z,13.40
2019-05-02T07:54:31.727Z,13.50
2019-05-02T07:59:36.653Z,13.40
2019-05-02T08:04:43.610Z,13.50
2019-05-02T08:09:48.223Z,13.50
2019-05-02T08:14:53.224Z,13.30
2019-05-02T08:19:58.099Z,13.30
2019-05-02T08:25:03.035Z,13.20
2019-05-02T08:30:11.484Z,13.10
2019-05-02T08:35:16.487Z,13.10
2019-05-02T08:40:21.413Z,13.00
2019-05-02T08:45:26.606Z,13.10
2019-05-02T08:50:32.229Z,13.10
2019-05-02T08:55:41.319Z,12.90
2019-05-02T09:00:47.471Z,12.90
2019-05-02T09:06:04.649Z,12.70
2019-05-02T09:11:00.559Z,12.70
2019-05-02T09:16:06.130Z,12.70
2019-05-02T09:21:12.551Z,12.70
2019-05-02T09:26:17.552Z,12.70
2019-05-02T09:31:23.935Z,12.80
2019-05-02T09:36:29.071Z,12.80
2019-05-02T09:41:36.270Z,12.90
2019-05-02T09:46:42.831Z,12.80
2019-05-02T09:51:50.393Z,12.80
2019-05-02T09:56:56.651Z,12.80
2019-05-02T10:02:06.574Z,12.80
2019-05-02T10:07:12.738Z,12.80
2019-05-02T10:12:18.361Z,12.60
2019-05-02T10:17:23.308Z,12.60
2019-05-02T10:22:32.311Z,12.70
2019-05-02T10:27:38.584Z,12.70
2019-05-02T10:32:42.745Z,12.90
2019-05-02T10:37:48.713Z,12.90
2019-05-02T10:42:55.022Z,12.90
2019-05-02T10:48:02.255Z,12.80
2019-05-02T10:53:14.503Z,12.80
2019-05-02T10:58:14.090Z,12.70
2019-05-02T11:03:25.616Z,12.60
2019-05-02T11:08:32.039Z,12.50
2019-05-02T11:14:05.809Z,12.50
2019-05-02T11:19:24.610Z,12.70
2019-05-02T11:24:31.612Z,12.50
2019-05-02T11:29:36.523Z,12.40
2019-05-02T11:34:43.066Z,12.30
2019-05-02T11:39:52.483Z,12.30
2019-05-02T11:44:54.799Z,12.50
2019-05-02T11:49:59.650Z,12.50
2019-05-02T11:55:05.487Z,12.50
2019-05-02T12:00:12.386Z,12.50
2019-05-02T12:05:19.595Z,12.50
2019-05-02T12:10:27.943Z,12.60
2019-05-02T12:15:35.031Z,12.60
2019-05-02T12:20:42.330Z,12.60
2019-05-02T12:25:47.103Z,12.40
2019-05-02T12:30:53.363Z,12.40
2019-05-02T12:35:59.338Z,12.30
2019-05-02T12:41:04.561Z,12.30
2019-05-02T12:46:11.611Z,12.50
2019-05-02T12:51:16.078Z,12.60
2019-05-02T12:56:22.976Z,12.70
2019-05-02T13:01:28.286Z,12.70
2019-05-02T13:06:37.054Z,12.80
2019-05-02T13:12:15.699Z,12.90
2019-05-02T13:17:22.645Z,13.10
2019-05-02T13:22:44.482Z,13.10
2019-05-02T13:27:49.470Z,13.00
2019-05-02T13:32:58.770Z,13.00
2019-05-02T13:38:07.938Z,13.00
2019-05-02T13:43:13.223Z,13.20
2019-05-02T13:48:18.479Z,13.20
2019-05-02T13:53:23.934Z,13.30
2019-05-02T13:58:30.599Z,13.50
2019-05-02T14:03:35.737Z,13.30
2019-05-02T14:08:47.458Z,13.30
2019-05-02T14:13:52.299Z,13.40
2019-05-02T14:18:57.463Z,13.60
2019-05-02T14:24:02.281Z,13.70
2019-05-02T14:29:11.876Z,13.60
2019-05-02T14:34:29.918Z,13.60
2019-05-02T14:39:35.591Z,13.60
2019-05-02T14:45:04.323Z,13.70
2019-05-02T14:49:47.640Z,13.80
2019-05-02T14:54:55.681Z,13.70
2019-05-02T15:00:03.181Z,13.60
2019-05-02T15:05:07.845Z,13.50
2019-05-02T15:10:13.251Z,13.60
2019-05-02T15:15:18.215Z,13.70
2019-05-02T15:20:35.895Z,13.60
2019-05-02T15:25:31.864Z,13.50
2019-05-02T15:30:44.869Z,13.50
2019-05-02T15:36:07.432Z,13.70
2019-05-02T15:41:13.002Z,13.60
2019-05-02T15:46:26.559Z,13.50
2019-05-02T15:51:26.004Z,13.40
2019-05-02T15:56:32.402Z,13.20
2019-05-02T16:01:49.968Z,13.10
2019-05-02T16:06:55.111Z,13.20
2019-05-02T16:12:00.516Z,13.10
2019-05-02T16:17:05.461Z,13.10
2019-05-02T16:22:16.631Z,13.10
2019-05-02T16:27:42.092Z,13.00
2019-05-02T16:32:52.278Z,13.10
2019-05-02T16:37:57.642Z,12.90
2019-05-02T16:43:02.962Z,13.10
2019-05-02T16:48:08.305Z,13.10
2019-05-02T16:53:17.128Z,12.90
2019-05-02T16:58:19.679Z,12.90
2019-05-02T17:03:26.344Z,13.10
2019-05-02T17:08:58.716Z,13.00
2019-05-02T17:14:06.953Z,12.90
2019-05-02T17:19:12.268Z,12.80
2019-05-02T17:24:24.590Z,12.60
2019-05-02T17:29:24.815Z,12.60
2019-05-02T17:34:32.534Z,12.70
2019-05-02T17:39:37.321Z,12.80
2019-05-02T17:44:43.959Z,12.70
2019-05-02T17:49:49.217Z,12.50
2019-05-02T17:54:57.498Z,12.40
2019-05-02T18:00:02.834Z,12.20
2019-05-02T18:05:17.955Z,12.20
2019-05-02T18:10:25.090Z,11.90
2019-05-02T18:15:34.767Z,12.40
2019-05-02T18:20:42.052Z,12.30
2019-05-02T18:25:43.966Z,12.30
2019-05-02T18:30:50.105Z,12.50
2019-05-02T18:35:55.559Z,12.50
2019-05-02T18:41:05.935Z,12.30
2019-05-02T18:46:07.741Z,12.10
2019-05-02T18:51:17.113Z,12.00
2019-05-02T18:56:22.181Z,11.90
2019-05-02T19:01:27.422Z,12.00
2019-05-02T19:06:36.008Z,12.10
2019-05-02T19:11:39.412Z,12.00
2019-05-02T19:16:44.873Z,11.90
2019-05-02T19:21:51.727Z,11.90
2019-05-02T19:26:57.172Z,11.80
2019-05-02T19:32:02.954Z,11.60
2019-05-02T19:37:08.043Z,11.40
2019-05-02T19:42:17.031Z,11.40
2019-05-02T19:47:19.822Z,11.30
2019-05-02T19:52:28.638Z,11.30
2019-05-02T19:57:33.823Z,11.20
2019-05-02T20:02:42.274Z,11.30
2019-05-02T20:07:46.873Z,11.20
2019-05-02T20:12:52.753Z,10.90
2019-05-02T20:18:00.681Z,10.80
2019-05-02T20:23:15.105Z,10.80
2019-05-02T20:28:11.925Z,10.90
2019-05-02T20:33:17.936Z,10.70
2019-05-02T20:38:22.971Z,10.90
2019-05-02T20:43:27.952Z,10.90
2019-05-02T20:48:34.961Z,10.80
2019-05-02T20:53:41.859Z,10.60
2019-05-02T20:58:47.132Z,10.50
2019-05-02T21:03:52.486Z,10.50
2019-05-02T21:09:28.816Z,10.40
2019-05-02T21:14:35.880Z,10.50
2019-05-02T21:19:41.758Z,10.60
2019-05-02T21:24:46.801Z,10.70
2019-05-02T21:29:52.965Z,10.70
2019-05-02T21:34:57.881Z,10.70
2019-05-02T21:40:03.033Z,10.80
2019-05-02T21:45:08.109Z,10.80
2019-05-02T21:50:21.719Z,10.80
2019-05-02T21:55:42.917Z,10.80
2019-05-02T22:00:55.398Z,10.80
2019-05-02T22:06:02.488Z,10.70
2019-05-02T22:11:08.113Z,10.60
2019-05-02T22:16:13.899Z,10.40
2019-05-02T22:21:19.269Z,10.40
2019-05-02T22:26:24.648Z,10.30
2019-05-02T22:31:32.182Z,10.30
2019-05-02T22:36:36.704Z,10.30
2019-05-02T22:41:42.615Z,10.40
2019-05-02T22:46:47.483Z,10.40
2019-05-02T22:51:52.680Z,10.40
2019-05-02T22:56:57.981Z,10.50
2019-05-02T23:02:03.008Z,10.50
2019-05-02T23:07:08.289Z,10.50
2019-05-02T23:12:13.513Z,10.40
2019-05-02T23:17:18.697Z,10.50
2019-05-02T23:22:24.858Z,10.50
2019-05-02T23:27:42.412Z,10.60
2019-05-02T23:32:47.688Z,10.50
2019-05-02T23:37:53.013Z,10.50
2019-05-02T23:42:58.085Z,10.40
2019-05-02T23:48:03.544Z,10.50
2019-05-02T23:53:08.660Z,10.50
2019-05-02T23:58:13.992Z,10.50
